sensor_id;sensor_type;location;lat;lon;timestamp;P1;durP1;ratioP1;P2;durP2;ratioP2
70153;SDS011;57519;51.494;-2.626;2023-07-16T00:00:14;23.95;;;5.38;;
70153;SDS011;57519;51.494;-2.626;2023-07-16T00:02:43;20.07;;;5.43;;
70153;SDS011;57519;51.494;-2.626;2023-07-16T00:05:08;19.23;;;4.88;;
70153;SDS011;57519;51.494;-2.626;2023-07-16T00:07:34;16.73;;;5.33;;
70153;SDS011;57519;51.494;-2.626;2023-07-16T00:09:59;21.00;;;5.40;;
70153;SDS011;57519;51.494;-2.626;2023-07-16T00:12:25;19.10;;;5.77;;
70153;SDS011;57519;51.494;-2.626;2023-07-16T00:14:50;18.85;;;5.07;;
70153;SDS011;57519;51.494;-2.626;2023-07-16T00:17:15;25.37;;;6.03;;
70153;SDS011;57519;51.494;-2.626;2023-07-16T00:19:41;13.30;;;5.43;;
70153;SDS011;57519;51.494;-2.626;2023-07-16T00:22:07;21.00;;;6.78;;
70153;SDS011;57519;51.494;-2.626;2023-07-16T00:24:32;28.17;;;7.13;;
70153;SDS011;57519;51.494;-2.626;2023-07-16T00:26:58;14.43;;;5.07;;
70153;SDS011;57519;51.494;-2.626;2023-07-16T00:29:23;19.30;;;5.37;;
70153;SDS011;57519;51.494;-2.626;2023-07-16T00:31:49;15.80;;;4.90;;
70153;SDS011;57519;51.494;-2.626;2023-07-16T00:34:14;22.43;;;5.90;;
70153;SDS011;57519;51.494;-2.626;2023-07-16T00:36:39;22.63;;;5.03;;
70153;SDS011;57519;51.494;-2.626;2023-07-16T00:39:05;20.17;;;5.73;;
70153;SDS011;57519;51.494;-2.626;2023-07-16T00:41:30;14.90;;;4.63;;
70153;SDS011;57519;51.494;-2.626;2023-07-16T00:43:56;21.87;;;5.03;;
70153;SDS011;57519;51.494;-2.626;2023-07-16T00:46:21;17.67;;;4.53;;
70153;SDS011;57519;51.494;-2.626;2023-07-16T00:48:47;18.35;;;5.03;;
70153;SDS011;57519;51.494;-2.626;2023-07-16T00:51:13;19.37;;;5.43;;
70153;SDS011;57519;51.494;-2.626;2023-07-16T00:53:39;19.48;;;5.28;;
70153;SDS011;57519;51.494;-2.626;2023-07-16T00:56:07;24.58;;;5.82;;
70153;SDS011;57519;51.494;-2.626;2023-07-16T00:58:34;18.40;;;5.20;;
70153;SDS011;57519;51.494;-2.626;2023-07-16T01:00:59;20.30;;;4.93;;
70153;SDS011;57519;51.494;-2.626;2023-07-16T01:03:25;22.13;;;5.13;;
70153;SDS011;57519;51.494;-2.626;2023-07-16T01:08:45;20.83;;;5.80;;
70153;SDS011;57519;51.494;-2.626;2023-07-16T01:11:12;16.65;;;4.90;;
70153;SDS011;57519;51.494;-2.626;2023-07-16T01:13:38;21.05;;;4.55;;
70153;SDS011;57519;51.494;-2.626;2023-07-16T01:16:04;18.73;;;4.70;;
70153;SDS011;57519;51.494;-2.626;2023-07-16T01:18:30;21.50;;;4.97;;
70153;SDS011;57519;51.494;-2.626;2023-07-16T01:20:56;12.23;;;4.87;;
70153;SDS011;57519;51.494;-2.626;2023-07-16T01:28:53;21.97;;;5.43;;
70153;SDS011;57519;51.494;-2.626;2023-07-16T01:31:32;15.95;;;4.93;;
70153;SDS011;57519;51.494;-2.626;2023-07-16T01:33:59;17.48;;;4.75;;
70153;SDS011;57519;51.494;-2.626;2023-07-16T01:36:25;15.02;;;5.30;;
70153;SDS011;57519;51.494;-2.626;2023-07-16T01:38:51;17.85;;;4.47;;
70153;SDS011;57519;51.494;-2.626;2023-07-16T01:41:17;14.13;;;4.97;;
70153;SDS011;57519;51.494;-2.626;2023-07-16T01:43:43;11.98;;;4.90;;
70153;SDS011;57519;51.494;-2.626;2023-07-16T01:46:09;15.83;;;4.53;;
70153;SDS011;57519;51.494;-2.626;2023-07-16T01:48:35;16.17;;;4.47;;
70153;SDS011;57519;51.494;-2.626;2023-07-16T01:51:03;16.20;;;4.53;;
70153;SDS011;57519;51.494;-2.626;2023-07-16T01:53:29;17.42;;;4.68;;
70153;SDS011;57519;51.494;-2.626;2023-07-16T01:55:54;14.10;;;4.13;;
70153;SDS011;57519;51.494;-2.626;2023-07-16T01:58:20;13.73;;;4.07;;
70153;SDS011;57519;51.494;-2.626;2023-07-16T02:00:45;14.93;;;4.80;;
70153;SDS011;57519;51.494;-2.626;2023-07-16T02:03:13;17.88;;;4.50;;
70153;SDS011;57519;51.494;-2.626;2023-07-16T02:05:38;14.77;;;4.53;;
70153;SDS011;57519;51.494;-2.626;2023-07-16T02:08:04;19.00;;;3.80;;
70153;SDS011;57519;51.494;-2.626;2023-07-16T02:10:29;14.20;;;4.53;;
70153;SDS011;57519;51.494;-2.626;2023-07-16T02:12:55;13.27;;;3.95;;
70153;SDS011;57519;51.494;-2.626;2023-07-16T02:15:20;19.07;;;4.97;;
70153;SDS011;57519;51.494;-2.626;2023-07-16T02:17:47;15.77;;;4.73;;
70153;SDS011;57519;51.494;-2.626;2023-07-16T02:20:13;14.95;;;4.30;;
70153;SDS011;57519;51.494;-2.626;2023-07-16T02:22:38;18.07;;;4.40;;
70153;SDS011;57519;51.494;-2.626;2023-07-16T02:25:04;13.03;;;4.50;;
70153;SDS011;57519;51.494;-2.626;2023-07-16T02:27:30;14.98;;;4.13;;
70153;SDS011;57519;51.494;-2.626;2023-07-16T02:29:56;15.37;;;4.10;;
70153;SDS011;57519;51.494;-2.626;2023-07-16T02:32:21;10.17;;;4.10;;
70153;SDS011;57519;51.494;-2.626;2023-07-16T02:34:48;18.85;;;5.20;;
70153;SDS011;57519;51.494;-2.626;2023-07-16T02:37:13;12.47;;;4.57;;
70153;SDS011;57519;51.494;-2.626;2023-07-16T02:39:42;16.95;;;4.28;;
70153;SDS011;57519;51.494;-2.626;2023-07-16T02:42:10;19.50;;;4.90;;
70153;SDS011;57519;51.494;-2.626;2023-07-16T02:44:35;16.23;;;4.15;;
70153;SDS011;57519;51.494;-2.626;2023-07-16T02:47:06;14.67;;;4.13;;
70153;SDS011;57519;51.494;-2.626;2023-07-16T02:49:32;14.10;;;4.18;;
70153;SDS011;57519;51.494;-2.626;2023-07-16T02:51:57;14.23;;;3.97;;
70153;SDS011;57519;51.494;-2.626;2023-07-16T02:54:23;16.10;;;4.30;;
70153;SDS011;57519;51.494;-2.626;2023-07-16T02:56:48;19.57;;;4.93;;
70153;SDS011;57519;51.494;-2.626;2023-07-16T02:59:14;14.37;;;3.67;;
70153;SDS011;57519;51.494;-2.626;2023-07-16T03:01:39;13.07;;;4.03;;
70153;SDS011;57519;51.494;-2.626;2023-07-16T03:04:04;14.80;;;4.80;;
70153;SDS011;57519;51.494;-2.626;2023-07-16T03:06:30;13.57;;;3.40;;
70153;SDS011;57519;51.494;-2.626;2023-07-16T03:08:55;16.05;;;4.35;;
70153;SDS011;57519;51.494;-2.626;2023-07-16T03:11:21;7.83;;;3.57;;
70153;SDS011;57519;51.494;-2.626;2023-07-16T03:13:47;14.70;;;4.47;;
70153;SDS011;57519;51.494;-2.626;2023-07-16T03:16:12;17.83;;;5.17;;
70153;SDS011;57519;51.494;-2.626;2023-07-16T03:18:38;19.77;;;4.47;;
70153;SDS011;57519;51.494;-2.626;2023-07-16T03:21:03;10.87;;;4.40;;
70153;SDS011;57519;51.494;-2.626;2023-07-16T03:23:28;10.60;;;4.00;;
70153;SDS011;57519;51.494;-2.626;2023-07-16T03:25:54;19.87;;;5.07;;
70153;SDS011;57519;51.494;-2.626;2023-07-16T03:28:19;13.50;;;4.20;;
70153;SDS011;57519;51.494;-2.626;2023-07-16T03:30:49;11.63;;;4.47;;
70153;SDS011;57519;51.494;-2.626;2023-07-16T03:33:15;12.50;;;4.28;;
70153;SDS011;57519;51.494;-2.626;2023-07-16T03:35:44;11.95;;;3.95;;
70153;SDS011;57519;51.494;-2.626;2023-07-16T03:38:11;14.70;;;4.20;;
70153;SDS011;57519;51.494;-2.626;2023-07-16T03:40:37;11.07;;;4.15;;
70153;SDS011;57519;51.494;-2.626;2023-07-16T03:43:02;19.57;;;4.70;;
70153;SDS011;57519;51.494;-2.626;2023-07-16T03:45:28;15.95;;;4.65;;
70153;SDS011;57519;51.494;-2.626;2023-07-16T03:47:53;16.57;;;4.83;;
70153;SDS011;57519;51.494;-2.626;2023-07-16T03:50:19;15.80;;;5.13;;
70153;SDS011;57519;51.494;-2.626;2023-07-16T03:52:44;17.48;;;4.85;;
70153;SDS011;57519;51.494;-2.626;2023-07-16T03:55:10;16.10;;;4.50;;
70153;SDS011;57519;51.494;-2.626;2023-07-16T03:57:35;14.87;;;4.90;;
70153;SDS011;57519;51.494;-2.626;2023-07-16T04:00:02;15.18;;;4.30;;
70153;SDS011;57519;51.494;-2.626;2023-07-16T04:02:31;15.57;;;5.83;;
70153;SDS011;57519;51.494;-2.626;2023-07-16T04:04:56;15.52;;;4.45;;
70153;SDS011;57519;51.494;-2.626;2023-07-16T04:07:21;14.27;;;3.93;;
70153;SDS011;57519;51.494;-2.626;2023-07-16T04:09:47;20.23;;;4.23;;
70153;SDS011;57519;51.494;-2.626;2023-07-16T04:12:12;14.33;;;4.33;;
70153;SDS011;57519;51.494;-2.626;2023-07-16T04:14:38;17.63;;;4.27;;
70153;SDS011;57519;51.494;-2.626;2023-07-16T04:17:03;18.95;;;4.72;;
70153;SDS011;57519;51.494;-2.626;2023-07-16T04:19:29;20.07;;;5.17;;
70153;SDS011;57519;51.494;-2.626;2023-07-16T04:21:54;13.55;;;4.63;;
70153;SDS011;57519;51.494;-2.626;2023-07-16T04:24:20;15.37;;;4.20;;
70153;SDS011;57519;51.494;-2.626;2023-07-16T04:26:45;16.13;;;3.90;;
70153;SDS011;57519;51.494;-2.626;2023-07-16T04:29:11;17.37;;;5.20;;
70153;SDS011;57519;51.494;-2.626;2023-07-16T04:31:36;18.40;;;4.23;;
70153;SDS011;57519;51.494;-2.626;2023-07-16T04:34:01;10.40;;;4.83;;
70153;SDS011;57519;51.494;-2.626;2023-07-16T04:36:27;20.30;;;4.80;;
70153;SDS011;57519;51.494;-2.626;2023-07-16T04:38:52;14.37;;;4.70;;
70153;SDS011;57519;51.494;-2.626;2023-07-16T04:41:18;17.27;;;4.80;;
70153;SDS011;57519;51.494;-2.626;2023-07-16T04:43:43;11.80;;;3.47;;
70153;SDS011;57519;51.494;-2.626;2023-07-16T04:46:09;17.90;;;4.20;;
70153;SDS011;57519;51.494;-2.626;2023-07-16T04:48:34;15.13;;;4.47;;
70153;SDS011;57519;51.494;-2.626;2023-07-16T04:50:59;13.83;;;3.97;;
70153;SDS011;57519;51.494;-2.626;2023-07-16T04:53:25;16.63;;;4.10;;
70153;SDS011;57519;51.494;-2.626;2023-07-16T04:55:51;20.60;;;4.80;;
70153;SDS011;57519;51.494;-2.626;2023-07-16T04:58:16;11.43;;;3.40;;
70153;SDS011;57519;51.494;-2.626;2023-07-16T05:00:42;9.95;;;3.85;;
70153;SDS011;57519;51.494;-2.626;2023-07-16T05:03:07;14.13;;;3.90;;
70153;SDS011;57519;51.494;-2.626;2023-07-16T05:05:33;13.10;;;3.97;;
70153;SDS011;57519;51.494;-2.626;2023-07-16T05:07:59;16.53;;;4.70;;
70153;SDS011;57519;51.494;-2.626;2023-07-16T05:10:25;13.85;;;4.50;;
70153;SDS011;57519;51.494;-2.626;2023-07-16T05:12:50;14.73;;;4.17;;
70153;SDS011;57519;51.494;-2.626;2023-07-16T05:15:16;13.43;;;4.27;;
70153;SDS011;57519;51.494;-2.626;2023-07-16T05:17:41;13.43;;;4.03;;
70153;SDS011;57519;51.494;-2.626;2023-07-16T05:20:07;17.02;;;4.63;;
70153;SDS011;57519;51.494;-2.626;2023-07-16T05:22:34;12.33;;;4.27;;
70153;SDS011;57519;51.494;-2.626;2023-07-16T05:24:59;12.18;;;4.30;;
70153;SDS011;57519;51.494;-2.626;2023-07-16T05:27:25;15.07;;;4.73;;
70153;SDS011;57519;51.494;-2.626;2023-07-16T05:29:50;15.23;;;4.73;;
70153;SDS011;57519;51.494;-2.626;2023-07-16T05:32:16;13.13;;;4.63;;
70153;SDS011;57519;51.494;-2.626;2023-07-16T05:34:41;15.27;;;4.15;;
70153;SDS011;57519;51.494;-2.626;2023-07-16T05:37:07;11.27;;;3.60;;
70153;SDS011;57519;51.494;-2.626;2023-07-16T05:39:32;11.50;;;3.93;;
70153;SDS011;57519;51.494;-2.626;2023-07-16T05:41:57;18.07;;;4.87;;
70153;SDS011;57519;51.494;-2.626;2023-07-16T05:44:23;15.68;;;4.07;;
70153;SDS011;57519;51.494;-2.626;2023-07-16T05:46:48;15.07;;;4.07;;
70153;SDS011;57519;51.494;-2.626;2023-07-16T05:49:14;16.63;;;3.70;;
70153;SDS011;57519;51.494;-2.626;2023-07-16T05:51:39;15.50;;;3.83;;
70153;SDS011;57519;51.494;-2.626;2023-07-16T05:54:05;13.50;;;4.40;;
70153;SDS011;57519;51.494;-2.626;2023-07-16T05:56:31;10.48;;;4.00;;
70153;SDS011;57519;51.494;-2.626;2023-07-16T05:58:57;9.10;;;3.80;;
70153;SDS011;57519;51.494;-2.626;2023-07-16T06:01:22;9.47;;;3.97;;
70153;SDS011;57519;51.494;-2.626;2023-07-16T06:03:47;17.33;;;4.23;;
70153;SDS011;57519;51.494;-2.626;2023-07-16T06:06:13;8.67;;;3.50;;
70153;SDS011;57519;51.494;-2.626;2023-07-16T06:08:38;14.00;;;4.83;;
70153;SDS011;57519;51.494;-2.626;2023-07-16T06:11:04;10.10;;;4.10;;
70153;SDS011;57519;51.494;-2.626;2023-07-16T06:13:30;17.27;;;4.63;;
70153;SDS011;57519;51.494;-2.626;2023-07-16T06:15:56;11.17;;;4.60;;
70153;SDS011;57519;51.494;-2.626;2023-07-16T06:18:21;11.95;;;4.38;;
70153;SDS011;57519;51.494;-2.626;2023-07-16T06:20:47;17.97;;;3.90;;
70153;SDS011;57519;51.494;-2.626;2023-07-16T06:23:12;9.73;;;4.03;;
70153;SDS011;57519;51.494;-2.626;2023-07-16T06:25:38;13.10;;;4.20;;
70153;SDS011;57519;51.494;-2.626;2023-07-16T06:28:09;9.95;;;3.85;;
70153;SDS011;57519;51.494;-2.626;2023-07-16T06:30:34;14.20;;;3.73;;
70153;SDS011;57519;51.494;-2.626;2023-07-16T06:33:00;11.57;;;4.53;;
70153;SDS011;57519;51.494;-2.626;2023-07-16T06:35:25;13.82;;;4.40;;
70153;SDS011;57519;51.494;-2.626;2023-07-16T06:37:51;12.43;;;4.30;;
70153;SDS011;57519;51.494;-2.626;2023-07-16T06:40:16;12.57;;;4.47;;
70153;SDS011;57519;51.494;-2.626;2023-07-16T06:42:42;10.20;;;4.20;;
70153;SDS011;57519;51.494;-2.626;2023-07-16T06:45:07;11.30;;;4.40;;
70153;SDS011;57519;51.494;-2.626;2023-07-16T06:47:33;13.13;;;3.53;;
70153;SDS011;57519;51.494;-2.626;2023-07-16T06:49:59;13.88;;;4.68;;
70153;SDS011;57519;51.494;-2.626;2023-07-16T06:52:24;9.07;;;3.50;;
70153;SDS011;57519;51.494;-2.626;2023-07-16T06:54:52;8.32;;;4.00;;
70153;SDS011;57519;51.494;-2.626;2023-07-16T06:57:18;9.95;;;3.30;;
70153;SDS011;57519;51.494;-2.626;2023-07-16T06:59:44;9.57;;;3.03;;
70153;SDS011;57519;51.494;-2.626;2023-07-16T07:02:09;10.13;;;3.85;;
70153;SDS011;57519;51.494;-2.626;2023-07-16T07:04:35;11.60;;;3.77;;
70153;SDS011;57519;51.494;-2.626;2023-07-16T07:07:00;10.93;;;3.63;;
70153;SDS011;57519;51.494;-2.626;2023-07-16T07:09:26;9.27;;;3.40;;
70153;SDS011;57519;51.494;-2.626;2023-07-16T07:11:51;8.98;;;3.70;;
70153;SDS011;57519;51.494;-2.626;2023-07-16T07:14:17;13.87;;;4.13;;
70153;SDS011;57519;51.494;-2.626;2023-07-16T07:16:42;17.37;;;4.30;;
70153;SDS011;57519;51.494;-2.626;2023-07-16T07:19:08;12.30;;;4.03;;
70153;SDS011;57519;51.494;-2.626;2023-07-16T07:21:33;12.47;;;3.23;;
70153;SDS011;57519;51.494;-2.626;2023-07-16T07:23:59;11.37;;;4.13;;
70153;SDS011;57519;51.494;-2.626;2023-07-16T07:26:24;10.00;;;4.03;;
70153;SDS011;57519;51.494;-2.626;2023-07-16T07:28:52;10.27;;;4.38;;
70153;SDS011;57519;51.494;-2.626;2023-07-16T07:31:17;13.80;;;3.90;;
70153;SDS011;57519;51.494;-2.626;2023-07-16T07:33:42;9.85;;;3.80;;
70153;SDS011;57519;51.494;-2.626;2023-07-16T07:36:08;15.83;;;4.30;;
70153;SDS011;57519;51.494;-2.626;2023-07-16T07:38:33;9.73;;;3.67;;
70153;SDS011;57519;51.494;-2.626;2023-07-16T07:40:59;11.70;;;3.80;;
70153;SDS011;57519;51.494;-2.626;2023-07-16T07:43:24;12.70;;;4.27;;
70153;SDS011;57519;51.494;-2.626;2023-07-16T07:45:50;12.27;;;3.80;;
70153;SDS011;57519;51.494;-2.626;2023-07-16T07:48:15;10.27;;;4.80;;
70153;SDS011;57519;51.494;-2.626;2023-07-16T07:50:41;11.35;;;4.15;;
70153;SDS011;57519;51.494;-2.626;2023-07-16T07:53:06;9.80;;;4.30;;
70153;SDS011;57519;51.494;-2.626;2023-07-16T07:55:31;13.57;;;4.80;;
70153;SDS011;57519;51.494;-2.626;2023-07-16T07:57:59;9.27;;;3.63;;
70153;SDS011;57519;51.494;-2.626;2023-07-16T08:00:24;10.23;;;3.80;;
70153;SDS011;57519;51.494;-2.626;2023-07-16T08:02:50;12.77;;;3.70;;
70153;SDS011;57519;51.494;-2.626;2023-07-16T08:05:15;7.83;;;3.83;;
70153;SDS011;57519;51.494;-2.626;2023-07-16T08:07:40;7.15;;;3.95;;
70153;SDS011;57519;51.494;-2.626;2023-07-16T08:10:06;9.80;;;3.77;;
70153;SDS011;57519;51.494;-2.626;2023-07-16T08:12:31;10.67;;;3.63;;
70153;SDS011;57519;51.494;-2.626;2023-07-16T08:14:57;7.80;;;3.30;;
70153;SDS011;57519;51.494;-2.626;2023-07-16T08:17:23;7.80;;;3.20;;
70153;SDS011;57519;51.494;-2.626;2023-07-16T08:19:48;10.52;;;3.53;;
70153;SDS011;57519;51.494;-2.626;2023-07-16T08:22:14;7.83;;;3.00;;
70153;SDS011;57519;51.494;-2.626;2023-07-16T08:24:39;6.60;;;3.30;;
70153;SDS011;57519;51.494;-2.626;2023-07-16T08:27:05;7.17;;;2.80;;
70153;SDS011;57519;51.494;-2.626;2023-07-16T08:29:30;7.45;;;3.47;;
70153;SDS011;57519;51.494;-2.626;2023-07-16T08:31:56;9.30;;;3.77;;
70153;SDS011;57519;51.494;-2.626;2023-07-16T08:34:21;11.93;;;3.47;;
70153;SDS011;57519;51.494;-2.626;2023-07-16T08:36:46;7.70;;;3.73;;
70153;SDS011;57519;51.494;-2.626;2023-07-16T08:39:12;12.77;;;4.25;;
70153;SDS011;57519;51.494;-2.626;2023-07-16T08:41:38;9.63;;;3.93;;
70153;SDS011;57519;51.494;-2.626;2023-07-16T08:44:04;8.63;;;3.13;;
70153;SDS011;57519;51.494;-2.626;2023-07-16T08:46:30;8.63;;;3.30;;
70153;SDS011;57519;51.494;-2.626;2023-07-16T08:48:56;11.23;;;3.08;;
70153;SDS011;57519;51.494;-2.626;2023-07-16T08:51:22;10.38;;;3.65;;
70153;SDS011;57519;51.494;-2.626;2023-07-16T08:53:48;8.63;;;3.40;;
70153;SDS011;57519;51.494;-2.626;2023-07-16T08:56:14;5.83;;;3.00;;
70153;SDS011;57519;51.494;-2.626;2023-07-16T08:58:40;7.47;;;3.20;;
70153;SDS011;57519;51.494;-2.626;2023-07-16T09:01:08;5.28;;;2.80;;
70153;SDS011;57519;51.494;-2.626;2023-07-16T09:03:35;9.27;;;3.33;;
70153;SDS011;57519;51.494;-2.626;2023-07-16T09:06:01;8.02;;;3.42;;
70153;SDS011;57519;51.494;-2.626;2023-07-16T09:08:28;8.48;;;3.42;;
70153;SDS011;57519;51.494;-2.626;2023-07-16T09:10:54;8.20;;;3.40;;
70153;SDS011;57519;51.494;-2.626;2023-07-16T09:13:20;11.32;;;3.35;;
70153;SDS011;57519;51.494;-2.626;2023-07-16T09:15:50;9.20;;;2.97;;
70153;SDS011;57519;51.494;-2.626;2023-07-16T09:18:20;8.70;;;3.15;;
70153;SDS011;57519;51.494;-2.626;2023-07-16T09:20:58;14.13;;;3.60;;
70153;SDS011;57519;51.494;-2.626;2023-07-16T09:23:29;8.50;;;3.35;;
70153;SDS011;57519;51.494;-2.626;2023-07-16T09:25:56;7.00;;;3.28;;
70153;SDS011;57519;51.494;-2.626;2023-07-16T09:28:22;7.40;;;2.60;;
70153;SDS011;57519;51.494;-2.626;2023-07-16T09:30:48;5.07;;;2.95;;
70153;SDS011;57519;51.494;-2.626;2023-07-16T09:33:14;7.07;;;2.80;;
70153;SDS011;57519;51.494;-2.626;2023-07-16T09:35:47;10.80;;;3.47;;
70153;SDS011;57519;51.494;-2.626;2023-07-16T09:38:14;8.98;;;3.40;;
70153;SDS011;57519;51.494;-2.626;2023-07-16T09:40:40;7.32;;;3.22;;
70153;SDS011;57519;51.494;-2.626;2023-07-16T09:43:09;8.03;;;3.60;;
70153;SDS011;57519;51.494;-2.626;2023-07-16T09:45:35;7.03;;;3.10;;
70153;SDS011;57519;51.494;-2.626;2023-07-16T09:48:04;11.85;;;3.50;;
70153;SDS011;57519;51.494;-2.626;2023-07-16T09:50:31;10.20;;;3.13;;
70153;SDS011;57519;51.494;-2.626;2023-07-16T09:52:58;9.95;;;3.78;;
70153;SDS011;57519;51.494;-2.626;2023-07-16T09:55:24;11.77;;;3.73;;
70153;SDS011;57519;51.494;-2.626;2023-07-16T09:57:51;10.27;;;3.22;;
70153;SDS011;57519;51.494;-2.626;2023-07-16T10:00:20;14.60;;;3.35;;
70153;SDS011;57519;51.494;-2.626;2023-07-16T10:02:46;8.03;;;2.20;;
70153;SDS011;57519;51.494;-2.626;2023-07-16T10:07:51;8.60;;;3.08;;
70153;SDS011;57519;51.494;-2.626;2023-07-16T10:10:19;6.97;;;2.50;;
70153;SDS011;57519;51.494;-2.626;2023-07-16T10:13:01;6.47;;;2.20;;
70153;SDS011;57519;51.494;-2.626;2023-07-16T10:15:27;6.38;;;2.92;;
70153;SDS011;57519;51.494;-2.626;2023-07-16T10:17:54;5.80;;;2.60;;
70153;SDS011;57519;51.494;-2.626;2023-07-16T10:20:31;9.77;;;3.60;;
70153;SDS011;57519;51.494;-2.626;2023-07-16T10:23:14;9.63;;;3.15;;
70153;SDS011;57519;51.494;-2.626;2023-07-16T10:26:02;11.33;;;3.80;;
70153;SDS011;57519;51.494;-2.626;2023-07-16T10:28:31;7.43;;;2.95;;
70153;SDS011;57519;51.494;-2.626;2023-07-16T10:30:57;13.73;;;3.42;;
70153;SDS011;57519;51.494;-2.626;2023-07-16T10:33:22;12.88;;;2.95;;
70153;SDS011;57519;51.494;-2.626;2023-07-16T10:35:48;10.30;;;3.33;;
70153;SDS011;57519;51.494;-2.626;2023-07-16T10:38:13;8.33;;;2.70;;
70153;SDS011;57519;51.494;-2.626;2023-07-16T10:40:45;7.03;;;2.87;;
70153;SDS011;57519;51.494;-2.626;2023-07-16T10:43:11;7.93;;;3.00;;
70153;SDS011;57519;51.494;-2.626;2023-07-16T10:45:37;9.18;;;2.80;;
70153;SDS011;57519;51.494;-2.626;2023-07-16T10:48:03;6.97;;;2.83;;
70153;SDS011;57519;51.494;-2.626;2023-07-16T10:50:31;9.15;;;3.17;;
70153;SDS011;57519;51.494;-2.626;2023-07-16T10:52:58;6.72;;;3.03;;
70153;SDS011;57519;51.494;-2.626;2023-07-16T10:55:25;5.40;;;2.70;;
70153;SDS011;57519;51.494;-2.626;2023-07-16T10:57:52;7.40;;;3.55;;
70153;SDS011;57519;51.494;-2.626;2023-07-16T11:00:19;15.10;;;3.95;;
70153;SDS011;57519;51.494;-2.626;2023-07-16T11:02:45;8.27;;;3.10;;
70153;SDS011;57519;51.494;-2.626;2023-07-16T11:05:12;9.85;;;3.10;;
70153;SDS011;57519;51.494;-2.626;2023-07-16T11:07:44;8.88;;;2.47;;
70153;SDS011;57519;51.494;-2.626;2023-07-16T11:10:11;13.73;;;4.10;;
70153;SDS011;57519;51.494;-2.626;2023-07-16T11:12:37;12.10;;;3.53;;
70153;SDS011;57519;51.494;-2.626;2023-07-16T11:15:02;8.07;;;3.20;;
70153;SDS011;57519;51.494;-2.626;2023-07-16T11:17:28;6.88;;;2.53;;
70153;SDS011;57519;51.494;-2.626;2023-07-16T11:19:54;9.60;;;2.60;;
70153;SDS011;57519;51.494;-2.626;2023-07-16T11:25:47;9.70;;;3.05;;
70153;SDS011;57519;51.494;-2.626;2023-07-16T11:28:13;15.40;;;4.40;;
70153;SDS011;57519;51.494;-2.626;2023-07-16T11:30:39;8.40;;;3.30;;
70153;SDS011;57519;51.494;-2.626;2023-07-16T11:33:09;18.30;;;4.45;;
70153;SDS011;57519;51.494;-2.626;2023-07-16T11:35:38;9.60;;;2.97;;
70153;SDS011;57519;51.494;-2.626;2023-07-16T11:38:04;11.82;;;3.13;;
70153;SDS011;57519;51.494;-2.626;2023-07-16T11:40:34;11.48;;;3.42;;
70153;SDS011;57519;51.494;-2.626;2023-07-16T11:43:10;8.43;;;2.88;;
70153;SDS011;57519;51.494;-2.626;2023-07-16T11:45:37;16.23;;;4.18;;
70153;SDS011;57519;51.494;-2.626;2023-07-16T11:48:03;11.63;;;3.20;;
70153;SDS011;57519;51.494;-2.626;2023-07-16T11:50:29;12.18;;;3.63;;
70153;SDS011;57519;51.494;-2.626;2023-07-16T11:52:56;12.10;;;3.35;;
70153;SDS011;57519;51.494;-2.626;2023-07-16T11:55:24;12.27;;;3.60;;
70153;SDS011;57519;51.494;-2.626;2023-07-16T11:57:49;8.10;;;3.53;;
70153;SDS011;57519;51.494;-2.626;2023-07-16T12:00:15;11.93;;;3.10;;
70153;SDS011;57519;51.494;-2.626;2023-07-16T12:02:42;10.32;;;2.95;;
70153;SDS011;57519;51.494;-2.626;2023-07-16T12:05:07;11.52;;;3.53;;
70153;SDS011;57519;51.494;-2.626;2023-07-16T12:07:34;8.47;;;3.57;;
70153;SDS011;57519;51.494;-2.626;2023-07-16T12:10:04;7.63;;;2.70;;
70153;SDS011;57519;51.494;-2.626;2023-07-16T12:12:31;6.47;;;2.67;;
70153;SDS011;57519;51.494;-2.626;2023-07-16T12:14:58;9.57;;;3.10;;
70153;SDS011;57519;51.494;-2.626;2023-07-16T12:17:24;11.20;;;3.43;;
70153;SDS011;57519;51.494;-2.626;2023-07-16T12:19:49;6.18;;;2.50;;
70153;SDS011;57519;51.494;-2.626;2023-07-16T12:22:16;8.23;;;2.80;;
70153;SDS011;57519;51.494;-2.626;2023-07-16T12:24:42;8.75;;;2.88;;
70153;SDS011;57519;51.494;-2.626;2023-07-16T12:27:08;12.60;;;2.97;;
70153;SDS011;57519;51.494;-2.626;2023-07-16T12:29:33;6.93;;;3.23;;
70153;SDS011;57519;51.494;-2.626;2023-07-16T12:31:59;9.18;;;3.22;;
70153;SDS011;57519;51.494;-2.626;2023-07-16T12:34:25;7.03;;;2.90;;
70153;SDS011;57519;51.494;-2.626;2023-07-16T12:36:50;8.20;;;2.87;;
70153;SDS011;57519;51.494;-2.626;2023-07-16T12:39:16;10.07;;;2.63;;
70153;SDS011;57519;51.494;-2.626;2023-07-16T12:41:42;7.20;;;2.57;;
70153;SDS011;57519;51.494;-2.626;2023-07-16T12:44:08;7.72;;;3.50;;
70153;SDS011;57519;51.494;-2.626;2023-07-16T12:46:34;9.30;;;2.60;;
70153;SDS011;57519;51.494;-2.626;2023-07-16T12:48:59;10.63;;;2.93;;
70153;SDS011;57519;51.494;-2.626;2023-07-16T12:51:25;7.63;;;2.83;;
70153;SDS011;57519;51.494;-2.626;2023-07-16T12:53:50;5.95;;;2.80;;
70153;SDS011;57519;51.494;-2.626;2023-07-16T12:56:15;9.47;;;3.47;;
70153;SDS011;57519;51.494;-2.626;2023-07-16T12:58:41;10.10;;;2.73;;
70153;SDS011;57519;51.494;-2.626;2023-07-16T13:01:06;9.73;;;3.20;;
70153;SDS011;57519;51.494;-2.626;2023-07-16T13:03:32;7.70;;;2.53;;
70153;SDS011;57519;51.494;-2.626;2023-07-16T13:05:58;11.63;;;3.03;;
70153;SDS011;57519;51.494;-2.626;2023-07-16T13:08:23;10.63;;;3.22;;
70153;SDS011;57519;51.494;-2.626;2023-07-16T13:10:49;7.53;;;3.10;;
70153;SDS011;57519;51.494;-2.626;2023-07-16T13:13:14;8.27;;;3.10;;
70153;SDS011;57519;51.494;-2.626;2023-07-16T13:15:40;8.07;;;3.00;;
70153;SDS011;57519;51.494;-2.626;2023-07-16T13:18:05;6.55;;;2.75;;
70153;SDS011;57519;51.494;-2.626;2023-07-16T13:20:30;7.97;;;3.37;;
70153;SDS011;57519;51.494;-2.626;2023-07-16T13:22:56;6.60;;;2.90;;
70153;SDS011;57519;51.494;-2.626;2023-07-16T13:25:22;10.13;;;2.70;;
70153;SDS011;57519;51.494;-2.626;2023-07-16T13:27:48;5.40;;;2.80;;
70153;SDS011;57519;51.494;-2.626;2023-07-16T13:30:13;8.93;;;3.10;;
70153;SDS011;57519;51.494;-2.626;2023-07-16T13:32:39;8.87;;;3.37;;
70153;SDS011;57519;51.494;-2.626;2023-07-16T13:35:04;13.20;;;2.87;;
70153;SDS011;57519;51.494;-2.626;2023-07-16T13:37:30;6.47;;;2.92;;
70153;SDS011;57519;51.494;-2.626;2023-07-16T13:39:56;8.47;;;3.10;;
70153;SDS011;57519;51.494;-2.626;2023-07-16T13:42:21;6.30;;;2.90;;
70153;SDS011;57519;51.494;-2.626;2023-07-16T13:44:46;8.50;;;2.90;;
70153;SDS011;57519;51.494;-2.626;2023-07-16T13:47:12;7.63;;;2.80;;
70153;SDS011;57519;51.494;-2.626;2023-07-16T13:49:37;9.40;;;3.10;;
70153;SDS011;57519;51.494;-2.626;2023-07-16T13:52:03;14.50;;;3.80;;
70153;SDS011;57519;51.494;-2.626;2023-07-16T13:54:28;7.47;;;2.88;;
70153;SDS011;57519;51.494;-2.626;2023-07-16T13:56:54;8.83;;;3.57;;
70153;SDS011;57519;51.494;-2.626;2023-07-16T13:59:19;10.67;;;3.93;;
70153;SDS011;57519;51.494;-2.626;2023-07-16T14:01:48;8.30;;;3.78;;
70153;SDS011;57519;51.494;-2.626;2023-07-16T14:04:24;9.75;;;3.50;;
70153;SDS011;57519;51.494;-2.626;2023-07-16T14:06:49;12.17;;;3.23;;
70153;SDS011;57519;51.494;-2.626;2023-07-16T14:09:14;8.07;;;3.00;;
70153;SDS011;57519;51.494;-2.626;2023-07-16T14:11:40;9.57;;;2.97;;
70153;SDS011;57519;51.494;-2.626;2023-07-16T14:14:05;7.10;;;3.33;;
70153;SDS011;57519;51.494;-2.626;2023-07-16T14:16:31;4.33;;;2.80;;
70153;SDS011;57519;51.494;-2.626;2023-07-16T14:18:56;5.07;;;2.80;;
70153;SDS011;57519;51.494;-2.626;2023-07-16T14:21:21;6.10;;;3.17;;
70153;SDS011;57519;51.494;-2.626;2023-07-16T14:23:47;8.43;;;2.93;;
70153;SDS011;57519;51.494;-2.626;2023-07-16T14:26:13;5.28;;;2.10;;
70153;SDS011;57519;51.494;-2.626;2023-07-16T14:28:38;5.60;;;2.30;;
70153;SDS011;57519;51.494;-2.626;2023-07-16T14:31:03;5.20;;;2.13;;
70153;SDS011;57519;51.494;-2.626;2023-07-16T14:33:29;7.57;;;3.03;;